createdAt,value
2017-10-26T00:00:39.628Z,92.5
2017-10-26T00:01:42.409Z,92.4
2017-10-26T00:02:44.833Z,92.5
2017-10-26T00:03:47.262Z,92.5
2017-10-26T00:04:49.710Z,92.5
2017-10-26T00:05:52.831Z,92.4
2017-10-26T00:06:55.268Z,92.3
2017-10-26T00:07:57.691Z,92.3
2017-10-26T00:09:00.112Z,92.4
2017-10-26T00:10:02.538Z,92.4
2017-10-26T00:11:04.967Z,92.4
2017-10-26T00:12:07.384Z,92.5
2017-10-26T00:13:09.825Z,92.4
2017-10-26T00:14:12.243Z,92.5
2017-10-26T00:15:14.673Z,92.5
2017-10-26T00:16:17.098Z,92.6
2017-10-26T00:17:19.523Z,92.6
2017-10-26T00:18:21.956Z,92.6
2017-10-26T00:19:24.746Z,92.5
2017-10-26T00:20:27.161Z,92.6
2017-10-26T00:21:29.584Z,92.6
2017-10-26T00:22:32.010Z,92.6
2017-10-26T00:23:34.783Z,92.6
2017-10-26T00:24:37.211Z,92.6
2017-10-26T00:25:39.640Z,92.6
2017-10-26T00:26:42.424Z,92.6
2017-10-26T00:27:44.862Z,92.6
2017-10-26T00:28:47.282Z,92.6
2017-10-26T00:29:49.709Z,92.7
2017-10-26T00:30:52.149Z,92.8
2017-10-26T00:31:54.583Z,92.8
2017-10-26T00:32:57.010Z,92.8
2017-10-26T00:33:59.433Z,92.8
2017-10-26T00:35:01.874Z,92.8
2017-10-26T00:36:04.305Z,92.8
2017-10-26T00:37:06.733Z,92.8
2017-10-26T00:38:09.145Z,92.8
2017-10-26T00:39:11.569Z,92.8
2017-10-26T00:40:14.009Z,92.7
2017-10-26T00:41:16.436Z,92.8
2017-10-26T00:42:18.862Z,92.8
2017-10-26T00:43:21.295Z,92.8
2017-10-26T00:44:23.722Z,92.8
2017-10-26T00:45:26.148Z,92.8
2017-10-26T00:46:28.572Z,92.8
2017-10-26T00:47:31.003Z,92.8
2017-10-26T00:48:33.423Z,92.8
2017-10-26T00:49:36.214Z,92.7
2017-10-26T00:50:38.638Z,92.8
2017-10-26T00:51:41.071Z,92.8
2017-10-26T00:52:43.523Z,92.8
2017-10-26T00:53:45.932Z,92.7
2017-10-26T00:54:48.351Z,92.7
2017-10-26T00:55:51.144Z,92.7
2017-10-26T00:56:53.582Z,92.6
2017-10-26T00:57:56.011Z,92.7
2017-10-26T00:58:58.445Z,92.7
2017-10-26T01:00:00.875Z,92.5
2017-10-26T01:01:03.304Z,92.6
2017-10-26T01:02:05.740Z,92.7
2017-10-26T01:03:08.525Z,92.7
2017-10-26T01:04:10.932Z,92.7
2017-10-26T01:05:13.736Z,92.8
2017-10-26T01:06:16.166Z,92.8
2017-10-26T01:07:18.592Z,92.7
2017-10-26T01:08:21.022Z,92.7
2017-10-26T01:09:23.441Z,92.7
2017-10-26T01:10:25.871Z,92.7
2017-10-26T01:11:28.671Z,92.7
2017-10-26T01:12:31.085Z,92.6
2017-10-26T01:13:33.892Z,92.6
2017-10-26T01:14:36.324Z,92.7
2017-10-26T01:15:39.098Z,92.8
2017-10-26T01:16:41.527Z,92.7
2017-10-26T01:17:43.946Z,92.7
2017-10-26T01:18:46.744Z,92.7
2017-10-26T01:19:49.515Z,92.8
2017-10-26T01:20:52.295Z,92.8
2017-10-26T01:21:54.726Z,92.8
2017-10-26T01:22:57.153Z,92.8
2017-10-26T01:23:59.945Z,92.8
2017-10-26T01:25:02.741Z,92.7
2017-10-26T01:26:05.158Z,92.7
2017-10-26T01:27:07.961Z,92.8
2017-10-26T01:28:10.384Z,92.7
2017-10-26T01:29:12.810Z,92.7
2017-10-26T01:30:15.245Z,92.7
2017-10-26T01:31:17.665Z,92.7
2017-10-26T01:32:20.087Z,92.7
2017-10-26T01:33:22.523Z,92.6
2017-10-26T01:34:24.946Z,92.6
2017-10-26T01:35:27.380Z,92.5
2017-10-26T01:36:29.817Z,92.6
2017-10-26T01:37:32.589Z,92.7
2017-10-26T01:38:35.028Z,92.6
2017-10-26T01:39:37.456Z,92.6
2017-10-26T01:40:39.878Z,92.5
2017-10-26T01:41:42.297Z,92.5
2017-10-26T01:42:44.732Z,92.7
2017-10-26T01:43:47.161Z,92.6
2017-10-26T01:44:49.580Z,92.5
2017-10-26T01:45:52.006Z,92.6
2017-10-26T01:46:54.425Z,92.6
2017-10-26T01:47:56.856Z,92.6
2017-10-26T01:48:59.290Z,92.6
2017-10-26T01:50:01.713Z,92.7
2017-10-26T01:51:04.148Z,92.7
2017-10-26T01:52:06.600Z,92.7
2017-10-26T01:53:09.029Z,92.7
2017-10-26T01:54:11.462Z,92.7
2017-10-26T01:55:13.881Z,92.8
2017-10-26T01:56:16.307Z,92.8
2017-10-26T01:57:18.732Z,92.8
2017-10-26T01:58:21.153Z,92.8
2017-10-26T01:59:23.578Z,92.8
2017-10-26T02:00:26.360Z,92.8
2017-10-26T02:01:28.793Z,92.8
2017-10-26T02:02:31.575Z,92.8
2017-10-26T02:03:33.998Z,92.8
2017-10-26T02:04:36.433Z,92.7
2017-10-26T02:05:38.864Z,92.7
2017-10-26T02:06:41.295Z,92.7
2017-10-26T02:07:43.725Z,92.7
2017-10-26T02:08:46.146Z,92.6
2017-10-26T02:09:48.573Z,92.5
2017-10-26T02:10:51.005Z,92.5
2017-10-26T02:11:53.428Z,92.5
2017-10-26T02:12:55.856Z,92.6
2017-10-26T02:13:58.281Z,92.5
2017-10-26T02:15:00.712Z,92.5
2017-10-26T02:16:03.154Z,92.5
2017-10-26T02:17:05.578Z,92.5
2017-10-26T02:18:08.003Z,92.5
2017-10-26T02:19:10.440Z,92.5
2017-10-26T02:20:12.873Z,92.4
2017-10-26T02:21:15.294Z,92.4
2017-10-26T02:22:17.718Z,92.5
2017-10-26T02:23:20.146Z,92.4
2017-10-26T02:24:22.954Z,92.4
2017-10-26T02:25:25.390Z,92.4
2017-10-26T02:26:27.811Z,92.3
2017-10-26T02:27:30.254Z,92.3
2017-10-26T02:28:32.659Z,92.4
2017-10-26T02:29:35.092Z,92.3
2017-10-26T02:30:37.527Z,92.3
2017-10-26T02:31:39.960Z,92.3
2017-10-26T02:32:42.374Z,92.3
2017-10-26T02:33:44.816Z,92.4
2017-10-26T02:34:47.965Z,92.3
2017-10-26T02:35:50.395Z,92.3
2017-10-26T02:36:52.829Z,92.3
2017-10-26T02:37:55.251Z,92.4
2017-10-26T02:38:57.679Z,92.4
2017-10-26T02:40:00.837Z,92.4
2017-10-26T02:41:03.259Z,92.3
2017-10-26T02:42:05.682Z,92.3
2017-10-26T02:43:08.123Z,92.3
2017-10-26T02:44:10.546Z,92.3
2017-10-26T02:45:12.979Z,92.3
2017-10-26T02:46:15.405Z,92.3
2017-10-26T02:47:17.828Z,92.4
2017-10-26T02:48:20.248Z,92.5
2017-10-26T02:49:22.672Z,92.5
2017-10-26T02:50:25.096Z,92.5
2017-10-26T02:51:27.517Z,92.5
2017-10-26T02:52:29.939Z,92.5
2017-10-26T02:53:32.375Z,92.5
2017-10-26T02:54:34.805Z,92.5
2017-10-26T02:55:37.233Z,92.6
2017-10-26T02:56:39.651Z,92.6
2017-10-26T02:57:42.437Z,92.5
2017-10-26T02:58:44.863Z,92.5
2017-10-26T02:59:47.297Z,92.6
2017-10-26T03:00:49.716Z,92.6
2017-10-26T03:01:52.146Z,92.6
2017-10-26T03:02:54.568Z,92.6
2017-10-26T03:03:56.999Z,92.6
2017-10-26T03:04:59.424Z,92.6
2017-10-26T03:06:02.211Z,92.6
2017-10-26T03:07:04.633Z,92.6
2017-10-26T03:08:07.075Z,92.6
2017-10-26T03:09:09.493Z,92.5
2017-10-26T03:10:11.910Z,92.5
2017-10-26T03:11:14.345Z,92.5
2017-10-26T03:12:16.783Z,92.5
2017-10-26T03:13:19.197Z,92.5
2017-10-26T03:14:21.634Z,92.5
2017-10-26T03:15:24.061Z,92.5
2017-10-26T03:16:26.488Z,92.5
2017-10-26T03:17:28.903Z,92.5
2017-10-26T03:18:31.342Z,92.5
2017-10-26T03:19:33.778Z,92.5
2017-10-26T03:20:36.187Z,92.5
2017-10-26T03:21:38.616Z,92.4
2017-10-26T03:22:41.040Z,92.5
2017-10-26T03:23:43.471Z,92.5
2017-10-26T03:24:45.915Z,92.5
2017-10-26T03:25:48.330Z,92.5
2017-10-26T03:26:51.113Z,92.5
2017-10-26T03:27:53.546Z,92.5
2017-10-26T03:28:55.976Z,92.6
2017-10-26T03:29:58.404Z,92.6
2017-10-26T03:31:00.843Z,92.6
2017-10-26T03:32:03.267Z,92.6
2017-10-26T03:33:05.698Z,92.7
2017-10-26T03:34:08.124Z,92.6
2017-10-26T03:35:10.546Z,92.6
2017-10-26T03:36:12.972Z,92.6
2017-10-26T03:37:15.398Z,92.6
2017-10-26T03:38:17.820Z,92.6
2017-10-26T03:39:20.255Z,92.5
2017-10-26T03:40:22.692Z,92.6
2017-10-26T03:41:25.116Z,92.5
2017-10-26T03:42:27.905Z,92.5
2017-10-26T03:43:30.341Z,92.5
2017-10-26T03:44:32.763Z,92.4
2017-10-26T03:45:35.195Z,92.5
2017-10-26T03:46:37.624Z,92.5
2017-10-26T03:47:40.047Z,92.5
2017-10-26T03:48:42.480Z,92.5
2017-10-26T03:49:44.913Z,92.5
2017-10-26T03:50:47.328Z,92.5
2017-10-26T03:51:49.752Z,92.5
2017-10-26T03:52:52.176Z,92.5
2017-10-26T03:53:54.599Z,92.5
2017-10-26T03:54:57.382Z,92.5
2017-10-26T03:55:59.800Z,92.6
2017-10-26T03:57:02.229Z,92.6
2017-10-26T03:58:04.667Z,92.5
2017-10-26T03:59:07.095Z,92.6
2017-10-26T04:00:09.531Z,92.5
2017-10-26T04:01:11.953Z,92.5
2017-10-26T04:02:14.377Z,92.5
2017-10-26T04:03:16.810Z,92.6
2017-10-26T04:04:19.231Z,92.6
2017-10-26T04:05:21.647Z,92.7
2017-10-26T04:06:24.074Z,92.7
2017-10-26T04:07:26.862Z,92.7
2017-10-26T04:08:29.293Z,92.6
2017-10-26T04:09:31.720Z,92.6
2017-10-26T04:10:34.149Z,92.7
2017-10-26T04:11:36.578Z,92.7
2017-10-26T04:12:39.006Z,92.8
2017-10-26T04:13:41.430Z,92.8
2017-10-26T04:14:43.840Z,92.8
2017-10-26T04:15:46.285Z,92.7
2017-10-26T04:16:48.704Z,92.7
2017-10-26T04:17:51.131Z,92.7
2017-10-26T04:18:53.564Z,92.7
2017-10-26T04:19:55.988Z,92.7
2017-10-26T04:20:58.413Z,92.8
2017-10-26T04:22:00.853Z,92.8
2017-10-26T04:23:03.272Z,92.7
2017-10-26T04:24:05.691Z,92.8
2017-10-26T04:25:08.128Z,92.7
2017-10-26T04:26:10.565Z,92.7
2017-10-26T04:27:12.995Z,92.7
2017-10-26T04:28:15.783Z,92.7
2017-10-26T04:29:18.199Z,92.7
2017-10-26T04:30:20.617Z,92.7
2017-10-26T04:31:23.059Z,92.8
2017-10-26T04:32:25.481Z,92.7
2017-10-26T04:33:28.263Z,92.7
2017-10-26T04:34:31.044Z,92.7
2017-10-26T04:35:33.472Z,92.8
2017-10-26T04:36:35.911Z,92.8
2017-10-26T04:37:38.343Z,92.8
2017-10-26T04:38:40.756Z,92.8
2017-10-26T04:39:43.182Z,92.8
2017-10-26T04:40:45.614Z,92.8
2017-10-26T04:41:48.048Z,92.6
2017-10-26T04:42:50.464Z,92.6
2017-10-26T04:43:52.895Z,92.5
2017-10-26T04:44:55.325Z,92.5
2017-10-26T04:45:57.752Z,92.5
2017-10-26T04:47:00.186Z,92.6
2017-10-26T04:48:02.981Z,92.6
2017-10-26T04:49:05.534Z,92.5
2017-10-26T04:50:08.013Z,92.5
2017-10-26T04:51:10.437Z,92.6
2017-10-26T04:52:13.214Z,92.5
2017-10-26T04:53:15.646Z,92.6
2017-10-26T04:54:18.085Z,92.6
2017-10-26T04:55:20.510Z,92.6
2017-10-26T04:56:22.946Z,92.6
2017-10-26T04:57:25.378Z,92.6
2017-10-26T04:58:27.802Z,92.6
2017-10-26T04:59:30.588Z,92.6
2017-10-26T05:00:33.013Z,92.6
2017-10-26T05:01:35.444Z,92.6
2017-10-26T05:02:37.876Z,92.6
2017-10-26T05:03:40.297Z,92.6
2017-10-26T05:04:43.091Z,92.7
2017-10-26T05:05:45.529Z,92.7
2017-10-26T05:06:47.954Z,92.7
2017-10-26T05:07:50.381Z,92.7
2017-10-26T05:08:52.809Z,92.7
2017-10-26T05:09:55.238Z,92.7
2017-10-26T05:10:57.665Z,92.8
2017-10-26T05:12:00.096Z,92.7
2017-10-26T05:13:02.536Z,92.7
2017-10-26T05:14:04.948Z,92.7
2017-10-26T05:15:07.459Z,92.6
2017-10-26T05:16:09.885Z,92.6
2017-10-26T05:17:12.315Z,92.6
2017-10-26T05:18:14.744Z,92.6
2017-10-26T05:19:17.177Z,92.7
2017-10-26T05:20:19.602Z,92.7
2017-10-26T05:21:22.038Z,92.7
2017-10-26T05:22:24.460Z,92.7
2017-10-26T05:23:26.882Z,92.6
2017-10-26T05:24:34.426Z,92.6
2017-10-26T05:25:44.226Z,92.6
2017-10-26T05:26:46.660Z,92.7
2017-10-26T05:27:49.081Z,92.7
2017-10-26T05:28:51.505Z,92.8
2017-10-26T05:29:54.126Z,92.8
2017-10-26T05:30:57.299Z,92.7
2017-10-26T05:31:59.730Z,92.7
2017-10-26T05:33:02.159Z,92.7
2017-10-26T05:34:04.582Z,92.7
2017-10-26T05:35:07.389Z,92.7
2017-10-26T05:36:09.822Z,92.8
2017-10-26T05:37:12.259Z,92.8
2017-10-26T05:38:14.662Z,92.8
2017-10-26T05:39:17.091Z,92.8
2017-10-26T05:40:19.527Z,92.8
2017-10-26T05:41:21.958Z,92.7
2017-10-26T05:42:24.738Z,92.7
2017-10-26T05:43:27.166Z,92.8
2017-10-26T05:44:29.603Z,92.8
2017-10-26T05:45:32.022Z,92.8
2017-10-26T05:46:34.460Z,92.8
2017-10-26T05:47:37.238Z,92.7
2017-10-26T05:48:39.668Z,92.7
2017-10-26T05:49:42.100Z,92.6
2017-10-26T05:50:44.525Z,92.6
2017-10-26T05:51:46.953Z,92.7
2017-10-26T05:52:49.388Z,92.7
2017-10-26T05:53:52.527Z,92.7
2017-10-26T05:54:54.964Z,92.6
2017-10-26T05:55:57.389Z,92.6
2017-10-26T05:56:59.812Z,92.7
2017-10-26T05:58:02.246Z,92.7
2017-10-26T05:59:04.677Z,92.7
2017-10-26T06:00:07.099Z,92.7
2017-10-26T06:01:09.545Z,92.7
2017-10-26T06:02:11.958Z,92.7
2017-10-26T06:03:14.386Z,92.8
2017-10-26T06:04:17.175Z,92.7
2017-10-26T06:05:19.599Z,92.7
2017-10-26T06:06:22.026Z,92.7
2017-10-26T06:07:24.459Z,92.7
2017-10-26T06:08:26.882Z,92.7
2017-10-26T06:09:29.299Z,92.8
2017-10-26T06:10:31.729Z,92.8
2017-10-26T06:11:34.173Z,92.9
2017-10-26T06:12:36.598Z,92.9
2017-10-26T06:13:39.382Z,92.8
2017-10-26T06:14:41.805Z,92.9
2017-10-26T06:15:44.233Z,92.9
2017-10-26T06:16:46.666Z,92.8
2017-10-26T06:17:49.089Z,92.8
2017-10-26T06:18:51.504Z,92.7
2017-10-26T06:19:53.930Z,92.7
2017-10-26T06:20:56.363Z,92.7
2017-10-26T06:21:58.795Z,92.8
2017-10-26T06:23:01.581Z,92.8
2017-10-26T06:24:04.013Z,92.8
2017-10-26T06:25:06.442Z,92.8
2017-10-26T06:26:08.873Z,92.8
2017-10-26T06:27:11.304Z,92.8
2017-10-26T06:28:13.727Z,92.7
2017-10-26T06:29:16.515Z,92.8
2017-10-26T06:30:18.949Z,92.8
2017-10-26T06:31:21.372Z,92.8
2017-10-26T06:32:23.794Z,92.8
2017-10-26T06:33:26.225Z,92.8
2017-10-26T06:34:28.651Z,92.8
2017-10-26T06:35:31.088Z,92.8
2017-10-26T06:36:33.521Z,92.8
2017-10-26T06:37:35.942Z,92.8
2017-10-26T06:38:38.377Z,92.6
2017-10-26T06:39:40.799Z,92.6
2017-10-26T06:40:43.220Z,92.7
2017-10-26T06:41:45.652Z,92.6
2017-10-26T06:42:48.081Z,92.6
2017-10-26T06:43:50.515Z,92.6
2017-10-26T06:44:52.938Z,92.6
2017-10-26T06:45:55.371Z,92.6
2017-10-26T06:46:58.145Z,92.6
2017-10-26T06:48:00.576Z,92.5
2017-10-26T06:49:03.004Z,92.6
2017-10-26T06:50:40.567Z,92.6
2017-10-26T06:51:42.946Z,92.6
2017-10-26T06:52:45.314Z,92.7
2017-10-26T06:53:47.706Z,92.7
2017-10-26T06:54:50.065Z,92.6
2017-10-26T06:55:52.450Z,92.6
2017-10-26T06:56:54.824Z,92.6
2017-10-26T06:57:57.548Z,92.6
2017-10-26T06:58:59.923Z,92.6
2017-10-26T07:00:02.303Z,92.6
2017-10-26T07:01:04.663Z,92.5
2017-10-26T07:02:07.400Z,92.5
2017-10-26T07:03:09.784Z,92.5
2017-10-26T07:04:12.152Z,92.5
2017-10-26T07:05:14.528Z,92.5
2017-10-26T07:06:16.908Z,92.5
2017-10-26T07:07:19.278Z,92.5
2017-10-26T07:08:21.652Z,92.5
2017-10-26T07:09:24.037Z,92.5
2017-10-26T07:10:26.417Z,92.6
2017-10-26T07:11:28.779Z,92.6
2017-10-26T07:12:31.147Z,92.6
2017-10-26T07:13:33.523Z,92.6
2017-10-26T07:14:36.249Z,92.7
2017-10-26T07:15:38.631Z,92.7
2017-10-26T07:16:40.996Z,92.7
2017-10-26T07:17:43.393Z,92.8
2017-10-26T07:18:45.768Z,92.7
2017-10-26T07:19:48.145Z,92.7
2017-10-26T07:20:50.898Z,92.8
2017-10-26T07:21:53.273Z,92.8
2017-10-26T07:22:55.646Z,92.8
2017-10-26T07:23:58.029Z,92.7
2017-10-26T07:25:00.761Z,92.7
2017-10-26T07:26:03.140Z,92.7
2017-10-26T07:27:05.505Z,92.7
2017-10-26T07:28:08.259Z,92.8
2017-10-26T07:29:10.641Z,92.7
2017-10-26T07:30:13.378Z,92.8
2017-10-26T07:31:15.737Z,92.8
2017-10-26T07:32:18.118Z,92.8
2017-10-26T07:33:20.493Z,92.9
2017-10-26T07:34:22.877Z,92.8
2017-10-26T07:35:25.251Z,92.8
2017-10-26T07:36:27.620Z,92.7
2017-10-26T07:37:30.005Z,92.8
2017-10-26T07:38:32.376Z,92.8
2017-10-26T07:39:34.745Z,92.8
2017-10-26T07:40:37.119Z,92.8
2017-10-26T07:41:39.489Z,92.7
2017-10-26T07:42:41.853Z,92.7
2017-10-26T07:43:44.595Z,92.7
2017-10-26T07:44:46.960Z,92.7
2017-10-26T07:45:49.714Z,92.7
2017-10-26T07:46:52.067Z,92.8
2017-10-26T07:47:54.443Z,92.8
2017-10-26T07:48:56.821Z,92.7
2017-10-26T07:49:59.555Z,92.7
2017-10-26T07:51:01.942Z,92.8
2017-10-26T07:52:04.302Z,92.8
2017-10-26T07:53:06.682Z,92.7
2017-10-26T07:54:09.064Z,92.8
2017-10-26T07:55:11.439Z,92.8
2017-10-26T07:56:13.810Z,92.8
2017-10-26T07:57:16.184Z,92.9
2017-10-26T07:58:18.562Z,92.9
2017-10-26T07:59:21.304Z,92.9
2017-10-26T08:00:23.681Z,93
2017-10-26T08:01:26.047Z,93.1
2017-10-26T08:02:28.425Z,93.1
2017-10-26T08:03:30.803Z,93.1
2017-10-26T08:04:33.176Z,93
2017-10-26T08:05:35.898Z,93
2017-10-26T08:06:38.266Z,92.9
2017-10-26T08:07:40.653Z,93
2017-10-26T08:08:43.019Z,93
2017-10-26T08:09:45.397Z,93
2017-10-26T08:10:47.767Z,93.2
2017-10-26T08:11:50.144Z,93.2
2017-10-26T08:12:52.517Z,93.3
2017-10-26T08:13:54.904Z,93.4
2017-10-26T08:14:57.275Z,93.4
2017-10-26T08:15:59.662Z,93.4
2017-10-26T08:17:02.040Z,93.3
2017-10-26T08:18:04.417Z,93.3
2017-10-26T08:19:06.788Z,93.3
2017-10-26T08:20:09.164Z,93.1
2017-10-26T08:21:11.885Z,93.1
2017-10-26T08:22:14.257Z,93
2017-10-26T08:23:16.626Z,92.9
2017-10-26T08:24:18.998Z,92.9
2017-10-26T08:25:21.380Z,93
2017-10-26T08:26:23.751Z,93
2017-10-26T08:27:26.121Z,93
2017-10-26T08:28:28.496Z,93
2017-10-26T08:29:30.878Z,92.9
2017-10-26T08:30:33.255Z,93
2017-10-26T08:31:35.631Z,93
2017-10-26T08:32:38.002Z,93.1
2017-10-26T08:33:40.375Z,93.1
2017-10-26T08:34:42.758Z,93.1
2017-10-26T08:35:45.141Z,93.1
2017-10-26T08:36:47.518Z,93.1
2017-10-26T08:37:50.261Z,93
2017-10-26T08:38:52.638Z,93
2017-10-26T08:39:55.000Z,93
2017-10-26T08:40:57.385Z,92.9
2017-10-26T08:41:59.771Z,93
2017-10-26T08:43:02.148Z,93
2017-10-26T08:44:04.526Z,92.9
2017-10-26T08:45:06.895Z,92.9
2017-10-26T08:46:09.270Z,92.8
2017-10-26T08:47:11.650Z,92.9
2017-10-26T08:48:14.015Z,92.9
2017-10-26T08:49:16.380Z,92.9
2017-10-26T08:50:19.117Z,93
2017-10-26T08:51:21.486Z,93
2017-10-26T08:52:23.857Z,93.1
2017-10-26T08:53:26.235Z,93.1
2017-10-26T08:54:28.611Z,92.9
2017-10-26T08:55:30.993Z,93
2017-10-26T08:56:33.377Z,93.1
2017-10-26T08:57:35.757Z,93.2
2017-10-26T08:58:38.136Z,93.3
2017-10-26T08:59:40.518Z,93.3
2017-10-26T09:00:42.886Z,93.2
2017-10-26T09:01:45.268Z,93.2
2017-10-26T09:02:47.643Z,93.2
2017-10-26T09:03:50.020Z,93.3
2017-10-26T09:04:52.396Z,93.3
2017-10-26T09:05:54.776Z,93.2
2017-10-26T09:06:57.161Z,93.2
2017-10-26T09:07:59.533Z,93.3
2017-10-26T09:09:01.915Z,93.4
2017-10-26T09:10:04.282Z,93.5
2017-10-26T09:11:06.654Z,93.5
2017-10-26T09:12:09.033Z,93.3
2017-10-26T09:13:11.416Z,93.3
2017-10-26T09:14:13.784Z,93.2
2017-10-26T09:15:16.507Z,93.2
2017-10-26T09:16:18.885Z,93.3
2017-10-26T09:17:21.257Z,93.1
2017-10-26T09:18:23.641Z,92.9
2017-10-26T09:19:26.021Z,92.8
2017-10-26T09:20:28.392Z,92.8
2017-10-26T09:21:30.772Z,92.9
2017-10-26T09:22:33.152Z,92.8
2017-10-26T09:23:35.531Z,93
2017-10-26T09:24:37.909Z,93
2017-10-26T09:25:40.288Z,93
2017-10-26T09:26:43.033Z,93
2017-10-26T09:27:45.413Z,93.1
2017-10-26T09:28:48.153Z,93
2017-10-26T09:29:50.523Z,93.1
2017-10-26T09:30:52.900Z,93
2017-10-26T09:31:55.618Z,93
2017-10-26T09:32:57.997Z,93
2017-10-26T09:34:00.737Z,93.1
2017-10-26T09:35:03.114Z,93.1
2017-10-26T09:36:05.493Z,93
2017-10-26T09:37:07.879Z,93.1
2017-10-26T09:38:10.261Z,93.2
2017-10-26T09:39:12.638Z,93.2
2017-10-26T09:40:15.009Z,93.2
2017-10-26T09:41:17.393Z,93
2017-10-26T09:42:19.764Z,93
2017-10-26T09:43:22.145Z,93
2017-10-26T09:44:24.882Z,93.1
2017-10-26T09:45:27.255Z,92.9
2017-10-26T09:46:29.633Z,93.1
2017-10-26T09:47:32.023Z,93
2017-10-26T09:48:34.391Z,93.1
2017-10-26T09:49:36.775Z,92.9
2017-10-26T09:50:39.154Z,92.8
2017-10-26T09:51:41.535Z,92.9
2017-10-26T09:52:43.918Z,92.8
2017-10-26T09:53:46.299Z,92.6
2017-10-26T09:54:48.677Z,92.7
2017-10-26T09:55:51.065Z,92.7
2017-10-26T09:56:53.444Z,92.6
2017-10-26T09:57:55.803Z,92.4
2017-10-26T09:58:58.191Z,92.3
2017-10-26T10:00:00.919Z,92.4
2017-10-26T10:01:03.497Z,92.4
2017-10-26T10:02:05.876Z,92.2
2017-10-26T10:03:08.250Z,92.3
2017-10-26T10:04:10.625Z,92.3
2017-10-26T10:05:13.021Z,92.6
2017-10-26T10:06:15.395Z,92.4
2017-10-26T10:07:17.761Z,92.4
2017-10-26T10:08:20.140Z,92.3
2017-10-26T10:09:22.872Z,92.4
2017-10-26T10:10:25.250Z,92.4
2017-10-26T10:11:27.630Z,92.4
2017-10-26T10:12:30.009Z,92.5
2017-10-26T10:13:32.753Z,92.4
2017-10-26T10:14:35.140Z,92.2
2017-10-26T10:15:37.515Z,92.1
2017-10-26T10:16:40.248Z,92.1
2017-10-26T10:17:42.630Z,92
2017-10-26T10:18:45.001Z,92.2
2017-10-26T10:19:47.373Z,92.3
2017-10-26T10:20:49.765Z,92.4
2017-10-26T10:21:52.125Z,92.5
2017-10-26T10:22:54.509Z,92.7
2017-10-26T10:23:57.271Z,92.5
2017-10-26T10:24:59.645Z,92.7
2017-10-26T10:26:02.027Z,92.7
2017-10-26T10:27:04.410Z,92.8
2017-10-26T10:28:06.780Z,92.7
2017-10-26T10:29:09.175Z,92.6
2017-10-26T10:30:11.554Z,92.6
2017-10-26T10:31:14.278Z,92.5
2017-10-26T10:32:16.660Z,92.5
2017-10-26T10:33:19.032Z,92.5
2017-10-26T10:34:21.406Z,92.5
2017-10-26T10:35:23.789Z,92.6
2017-10-26T10:36:26.165Z,92.7
2017-10-26T10:37:28.546Z,92.7
2017-10-26T10:38:30.910Z,92.8
2017-10-26T10:39:33.303Z,92.8
2017-10-26T10:40:36.038Z,92.9
2017-10-26T10:41:38.415Z,92.9
2017-10-26T10:42:40.802Z,92.8
2017-10-26T10:43:43.178Z,92.7
2017-10-26T10:44:45.556Z,92.7
2017-10-26T10:45:47.942Z,92.5
2017-10-26T10:46:50.318Z,92.5
2017-10-26T10:47:52.688Z,92.5
2017-10-26T10:48:55.072Z,92.6
2017-10-26T10:49:57.804Z,92.5
2017-10-26T10:51:00.182Z,92.4
2017-10-26T10:52:02.572Z,92.5
2017-10-26T10:53:04.932Z,92.5
2017-10-26T10:54:07.306Z,92.4
2017-10-26T10:55:09.697Z,92.5
2017-10-26T10:56:12.060Z,92.8
2017-10-26T10:57:14.436Z,92.9
2017-10-26T10:58:16.817Z,92.9
2017-10-26T10:59:19.544Z,92.8
2017-10-26T11:00:21.932Z,92.8
2017-10-26T11:01:24.317Z,92.8
2017-10-26T11:02:26.680Z,92.8
2017-10-26T11:03:29.411Z,92.8
2017-10-26T11:04:31.796Z,92.8
2017-10-26T11:05:34.178Z,92.8
2017-10-26T11:06:36.550Z,92.8
2017-10-26T11:07:39.288Z,92.8
2017-10-26T11:08:42.019Z,92.8
2017-10-26T11:09:44.392Z,92.9
2017-10-26T11:10:46.774Z,92.9
2017-10-26T11:11:49.159Z,92.8
2017-10-26T11:12:51.528Z,92.6
2017-10-26T11:13:53.918Z,92.6
2017-10-26T11:14:56.289Z,92.5
2017-10-26T11:15:58.661Z,92.7
2017-10-26T11:17:01.043Z,92.6
2017-10-26T11:18:03.414Z,92.6
2017-10-26T11:19:05.808Z,92.8
2017-10-26T11:20:08.176Z,92.7
2017-10-26T11:21:10.940Z,92.7
2017-10-26T11:22:13.307Z,92.8
2017-10-26T11:23:16.036Z,92.9
2017-10-26T11:24:18.410Z,93
2017-10-26T11:25:20.784Z,93
2017-10-26T11:26:23.162Z,93
2017-10-26T11:27:25.534Z,92.9
2017-10-26T11:28:27.924Z,92.9
2017-10-26T11:29:30.302Z,92.7
2017-10-26T11:30:32.684Z,92.9
2017-10-26T11:31:35.070Z,93
2017-10-26T11:32:37.443Z,93.2
2017-10-26T11:33:39.824Z,93.2
2017-10-26T11:34:42.196Z,93.2
2017-10-26T11:35:44.583Z,93.2
2017-10-26T11:36:46.979Z,93.2
2017-10-26T11:37:49.334Z,93.3
2017-10-26T11:38:51.725Z,93.3
2017-10-26T11:39:54.123Z,93.5
2017-10-26T11:40:56.834Z,93.6
2017-10-26T11:41:59.582Z,93.5
2017-10-26T11:43:01.950Z,93.5
2017-10-26T11:44:04.327Z,93.5
2017-10-26T11:45:07.115Z,93.5
2017-10-26T11:46:09.484Z,93.2
2017-10-26T11:47:11.857Z,93.2
2017-10-26T11:48:14.243Z,93.2
2017-10-26T11:49:16.618Z,93.2
2017-10-26T11:50:19.009Z,93.4
2017-10-26T11:51:21.421Z,93.2
2017-10-26T11:52:23.791Z,93
2017-10-26T11:53:26.185Z,93
2017-10-26T11:54:28.556Z,92.9
2017-10-26T11:55:30.942Z,92.8
2017-10-26T11:56:33.676Z,93
2017-10-26T11:57:36.050Z,93.3
2017-10-26T11:58:38.430Z,93.1
2017-10-26T11:59:40.819Z,93.2
2017-10-26T12:00:43.188Z,93.2
2017-10-26T12:01:45.912Z,93.4
2017-10-26T12:02:48.291Z,93.5
2017-10-26T12:03:50.667Z,93.6
2017-10-26T12:04:53.410Z,93.1
2017-10-26T12:05:55.799Z,92.9
2017-10-26T12:06:58.168Z,92.8
2017-10-26T12:08:00.545Z,92.5
2017-10-26T12:09:02.937Z,92.5
2017-10-26T12:10:05.316Z,92.5
2017-10-26T12:11:07.685Z,92.6
2017-10-26T12:12:10.416Z,92.7
2017-10-26T12:13:13.145Z,92.4
2017-10-26T12:14:15.527Z,92.5
2017-10-26T12:15:17.912Z,92.6
2017-10-26T12:16:20.282Z,92.5
2017-10-26T12:17:22.662Z,92.5
2017-10-26T12:18:25.057Z,92.4
2017-10-26T12:19:27.428Z,92.3
2017-10-26T12:20:29.805Z,92.3
2017-10-26T12:21:32.561Z,92.5
2017-10-26T12:22:35.300Z,92.6
2017-10-26T12:23:37.692Z,92.6
2017-10-26T12:24:40.075Z,92.3
2017-10-26T12:25:42.448Z,92.3
2017-10-26T12:26:44.834Z,92.3
2017-10-26T12:27:47.212Z,92.5
2017-10-26T12:28:49.584Z,92.6
2017-10-26T12:29:51.957Z,92.6
2017-10-26T12:30:54.331Z,92.6
2017-10-26T12:31:57.056Z,92.7
2017-10-26T12:32:59.476Z,92.6
2017-10-26T12:34:01.865Z,92.8
2017-10-26T12:35:04.238Z,92.8
2017-10-26T12:36:06.617Z,92.7
2017-10-26T12:37:09.002Z,92.8
2017-10-26T12:38:11.381Z,93
2017-10-26T12:39:14.101Z,93.1
2017-10-26T12:40:16.491Z,93.3
2017-10-26T12:41:18.867Z,93.4
2017-10-26T12:42:21.252Z,93.1
2017-10-26T12:43:23.636Z,93.1
2017-10-26T12:44:26.360Z,93.1
2017-10-26T12:45:28.736Z,93.2
2017-10-26T12:46:31.119Z,93.2
2017-10-26T12:47:33.500Z,93
2017-10-26T12:48:35.886Z,93
2017-10-26T12:49:38.255Z,92.9
2017-10-26T12:50:40.649Z,92.9
2017-10-26T12:51:43.392Z,92.9
2017-10-26T12:52:45.774Z,92.7
2017-10-26T12:53:48.164Z,92.6
2017-10-26T12:54:50.542Z,92.5
2017-10-26T12:55:52.921Z,92.5
2017-10-26T12:56:55.311Z,92.5
2017-10-26T12:57:57.678Z,92.5
2017-10-26T12:59:00.061Z,92.4
2017-10-26T13:00:02.447Z,92.3
2017-10-26T13:01:04.825Z,92.4
2017-10-26T13:02:07.211Z,92.5
2017-10-26T13:03:09.592Z,92.6
2017-10-26T13:04:11.977Z,92.4
2017-10-26T13:05:14.359Z,92.5
2017-10-26T13:06:16.734Z,92.3
2017-10-26T13:07:19.117Z,92.3
2017-10-26T13:08:21.494Z,92.3
2017-10-26T13:09:23.888Z,92.3
2017-10-26T13:10:26.256Z,92.4
2017-10-26T13:11:28.652Z,92.5
2017-10-26T13:12:31.030Z,92.5
2017-10-26T13:13:33.411Z,92.5
2017-10-26T13:14:36.141Z,92.2
2017-10-26T13:15:38.518Z,92.3
2017-10-26T13:16:40.889Z,92.2
2017-10-26T13:17:43.284Z,92.3
2017-10-26T13:18:45.666Z,92.5
2017-10-26T13:19:48.047Z,92.6
2017-10-26T13:20:50.788Z,92.6
2017-10-26T13:21:53.176Z,92.5
2017-10-26T13:22:55.559Z,92.6
2017-10-26T13:23:57.945Z,92.6
2017-10-26T13:25:00.319Z,92.8
2017-10-26T13:26:02.714Z,92.7
2017-10-26T13:27:05.091Z,92.7
2017-10-26T13:28:07.479Z,92.6
2017-10-26T13:29:10.554Z,92.4
2017-10-26T13:30:12.986Z,92.3
2017-10-26T13:31:15.369Z,92.5
2017-10-26T13:32:17.752Z,92.5
2017-10-26T13:33:20.128Z,92.4
2017-10-26T13:34:22.506Z,92.4
2017-10-26T13:35:24.887Z,92.5
2017-10-26T13:36:27.271Z,92.4
2017-10-26T13:37:29.648Z,92.2
2017-10-26T13:38:32.404Z,92.2
2017-10-26T13:39:34.792Z,92.5
2017-10-26T13:40:37.170Z,92.6
2017-10-26T13:41:39.564Z,92.7
2017-10-26T13:42:41.949Z,92.4
2017-10-26T13:43:44.316Z,92.6
2017-10-26T13:44:46.704Z,92.5
2017-10-26T13:45:49.082Z,92.6
2017-10-26T13:46:51.462Z,92.8
2017-10-26T13:47:54.549Z,92.7
2017-10-26T13:48:56.923Z,92.5
2017-10-26T13:49:59.294Z,92.6
2017-10-26T13:51:01.683Z,92.5
2017-10-26T13:52:04.068Z,92.4
2017-10-26T13:53:06.447Z,92.4
2017-10-26T13:54:08.834Z,92.4
2017-10-26T13:55:11.208Z,92.5